Terminal Aerodrome Forecast
Issued by NWS

Home | Current Version | Previous Version | Graphics & Text | Print | Product List | Glossary On
Versions: 1 2 3 4 5 6 7 8 9 10 11 12 13
220
FTUS43 KOAX 161720
TAFCDR
TAF
KCDR 161720Z 1618/1718 24012KT P6SM SCT250
     FM170200 24005KT P6SM SKC=

USA.gov is the U.S. government's official web portal to all federal, state and local government web resources and services.